Time;durP1;ratioP1;P1;durP2;ratioP2;P2;SDS_P1;SDS_P2;PMS_P1;PMS_P2;Temp;Humidity;BMP_temperature;BMP_pressure;BME280_temperature;BME280_humidity;BME280_pressure;Samples;Min_cycle;Max_cycle;Signal;HPM_P1;HPM_P2
2022/03/30 00:01:33;;;;;;;23.27;3.05;;;;;;;14.39;47.62;95045.25;5096756;28;20234;-68
2022/03/30 00:04:00;;;;;;;25.27;3.35;;;;;;;14.46;47.33;95045.94;5096353;28;20679;-69
2022/03/30 00:06:26;;;;;;;17.40;4.10;;;;;;;14.57;47.23;95042.50;5096743;28;20234;-70
2022/03/30 00:08:53;;;;;;;9.30;2.40;;;;;;;14.66;47.59;95036.63;5096517;28;20203;-68
2022/03/30 00:11:20;;;;;;;15.35;2.50;;;;;;;14.52;47.83;95039.75;5096870;28;20394;-69
2022/03/30 00:13:46;;;;;;;16.85;3.58;;;;;;;14.48;47.46;95035.94;5095859;28;20207;-70
2022/03/30 00:16:14;;;;;;;25.90;3.13;;;;;;;14.64;48.31;95034.22;5096692;28;20231;-69
2022/03/30 00:18:41;;;;;;;23.30;4.13;;;;;;;14.36;48.95;95037.78;5096990;28;20450;-69
2022/03/30 00:21:07;;;;;;;13.55;2.92;;;;;;;14.29;49.71;95040.50;5096597;28;20246;-69
2022/03/30 00:23:34;;;;;;;9.48;3.75;;;;;;;14.22;49.68;95039.81;5096157;28;20225;-69
2022/03/30 00:26:00;;;;;;;13.27;3.17;;;;;;;14.13;50.17;95033.22;5096612;28;20223;-69
2022/03/30 00:28:28;;;;;;;9.65;2.90;;;;;;;14.02;50.51;95039.25;5096760;28;20199;-69
2022/03/30 00:30:55;;;;;;;13.15;3.95;;;;;;;14.16;50.79;95029.31;5096495;28;20294;-69
2022/03/30 00:33:23;;;;;;;13.02;3.45;;;;;;;14.11;51.98;95031.84;5096020;28;20210;-69
2022/03/30 00:35:49;;;;;;;19.90;3.80;;;;;;;14.02;52.06;95033.97;5096189;28;20226;-69
2022/03/30 00:38:16;;;;;;;12.70;2.78;;;;;;;13.93;51.91;95033.75;5096113;28;20302;-69
2022/03/30 00:40:42;;;;;;;9.13;2.88;;;;;;;13.90;52.16;95036.81;5093928;28;20207;-69
2022/03/30 00:43:09;;;;;;;11.30;2.38;;;;;;;13.93;51.74;95028.44;5095409;28;20439;-69
2022/03/30 00:45:35;;;;;;;11.23;2.58;;;;;;;13.83;51.87;95028.19;5096361;28;20219;-69
2022/03/30 00:48:02;;;;;;;14.07;3.28;;;;;;;13.75;52.99;95031.16;5096504;28;20199;-69
2022/03/30 00:50:30;;;;;;;17.92;3.13;;;;;;;13.95;52.35;95027.19;5096700;28;20469;-69
2022/03/30 00:52:57;;;;;;;10.25;2.72;;;;;;;13.68;50.94;95025.94;5094963;28;20204;-69
2022/03/30 00:55:24;;;;;;;24.13;3.53;;;;;;;13.71;51.26;95025.50;5096350;28;20227;-69
2022/03/30 00:57:52;;;;;;;12.20;2.97;;;;;;;13.89;51.24;95019.34;5096451;28;20199;-70
2022/03/30 01:00:19;;;;;;;25.00;3.42;;;;;;;13.77;51.23;95023.78;5095800;28;20228;-69
2022/03/30 01:02:47;;;;;;;16.38;3.75;;;;;;;13.84;51.02;95014.72;5095314;28;20889;-69
2022/03/30 01:05:15;;;;;;;19.52;3.90;;;;;;;13.88;50.62;95013.22;5095886;28;20231;-69
2022/03/30 01:07:43;;;;;;;6.40;2.83;;;;;;;13.97;50.81;95013.72;5096285;28;20207;-69
2022/03/30 01:10:12;;;;;;;10.55;2.83;;;;;;;13.98;50.24;95006.31;5096041;28;20210;-69
2022/03/30 01:12:39;;;;;;;11.80;2.53;;;;;;;14.01;49.57;95000.59;5095295;28;20570;-68
2022/03/30 01:15:07;;;;;;;26.23;3.85;;;;;;;14.00;49.93;94998.16;5095821;28;20227;-69
2022/03/30 01:17:34;;;;;;;23.02;4.75;;;;;;;13.86;50.68;94986.19;5095762;28;20219;-69
2022/03/30 01:20:00;;;;;;;14.65;2.90;;;;;;;13.83;51.32;94981.31;5096111;28;20202;-69
2022/03/30 01:22:28;;;;;;;12.73;2.53;;;;;;;13.90;51.24;94975.91;5098443;28;20219;-69
2022/03/30 01:24:55;;;;;;;13.93;3.10;;;;;;;13.82;51.59;94977.03;5099934;28;20389;-69
2022/03/30 01:27:21;;;;;;;18.52;3.85;;;;;;;13.80;51.89;94976.47;5100101;28;20199;-69
2022/03/30 01:32:34;;;;;;;16.85;2.78;;;;;;;13.71;51.32;94977.00;5098854;28;20206;-68
2022/03/30 01:35:03;;;;;;;14.13;3.88;;;;;;;13.74;51.34;94966.78;5099654;28;20222;-69
2022/03/30 01:37:32;;;;;;;18.60;3.00;;;;;;;13.93;50.39;94968.31;5100040;28;20320;-69
2022/03/30 01:40:00;;;;;;;6.85;2.55;;;;;;;13.78;50.53;94962.66;5096725;28;20490;-70
2022/03/30 01:42:28;;;;;;;14.10;3.25;;;;;;;13.95;50.68;94962.78;5099426;28;20223;-68
2022/03/30 01:44:56;;;;;;;11.98;3.15;;;;;;;13.79;50.80;94953.69;5099808;28;20615;-69
2022/03/30 01:47:23;;;;;;;22.05;3.67;;;;;;;13.86;50.24;94958.88;5099682;28;20229;-70
2022/03/30 01:49:49;;;;;;;14.70;2.75;;;;;;;13.82;50.20;94953.22;5099596;28;20214;-69
2022/03/30 01:52:17;;;;;;;11.50;2.83;;;;;;;13.83;50.72;94949.53;5099790;28;20579;-69
2022/03/30 01:54:45;;;;;;;13.80;3.45;;;;;;;13.94;50.92;94932.88;5099581;28;20558;-69
2022/03/30 01:57:13;;;;;;;7.13;2.53;;;;;;;13.80;51.06;94949.22;5099174;28;20199;-69
2022/03/30 01:59:40;;;;;;;13.68;3.47;;;;;;;13.73;51.04;94932.59;5099575;28;20218;-68
2022/03/30 02:02:08;;;;;;;8.18;2.33;;;;;;;13.66;50.79;94927.41;5099761;28;20321;-69
2022/03/30 02:04:36;;;;;;;13.63;3.33;;;;;;;13.63;51.38;94927.88;5098681;28;20214;-69
2022/03/30 02:07:03;;;;;;;18.00;3.70;;;;;;;13.23;53.13;94922.56;5099088;28;20209;-69
2022/03/30 02:09:30;;;;;;;16.30;3.33;;;;;;;13.47;51.90;94923.22;5099255;28;20207;-69
2022/03/30 02:11:59;;;;;;;17.45;2.92;;;;;;;13.69;51.24;94915.56;5098823;28;20195;-68
2022/03/30 02:14:25;;;;;;;11.55;3.15;;;;;;;13.52;51.35;94909.31;5098724;28;20654;-69
2022/03/30 02:16:52;;;;;;;26.95;4.07;;;;;;;13.53;51.45;94913.56;5099239;28;20289;-69
2022/03/30 02:19:18;;;;;;;12.70;2.72;;;;;;;13.55;51.70;94909.66;5098759;28;20207;-69
2022/03/30 02:21:45;;;;;;;10.80;2.95;;;;;;;13.42;51.66;94912.50;5099604;28;20231;-70
2022/03/30 02:24:12;;;;;;;13.60;3.40;;;;;;;13.46;51.21;94912.84;5098242;28;20241;-69
2022/03/30 02:26:38;;;;;;;9.00;2.53;;;;;;;13.54;51.25;94905.41;5098498;28;20230;-69
2022/03/30 02:29:06;;;;;;;14.63;3.67;;;;;;;13.61;51.21;94903.47;5098887;28;20597;-68
2022/03/30 02:31:33;;;;;;;16.67;4.07;;;;;;;13.43;51.02;94906.19;5098295;28;20199;-69
2022/03/30 02:34:00;;;;;;;14.35;3.50;;;;;;;13.41;51.39;94899.50;5097833;28;20694;-69
2022/03/30 02:36:26;;;;;;;18.95;3.70;;;;;;;13.47;51.57;94899.41;5098724;28;20226;-69
2022/03/30 02:38:53;;;;;;;13.50;3.22;;;;;;;13.39;51.41;94894.44;5095693;28;20765;-69
2022/03/30 02:41:19;;;;;;;22.02;2.97;;;;;;;13.39;51.45;94898.94;5098598;28;20209;-69
2022/03/30 02:43:46;;;;;;;7.95;3.15;;;;;;;13.12;52.13;94907.44;5097508;28;20607;-70
2022/03/30 02:46:14;;;;;;;15.23;3.70;;;;;;;13.20;52.81;94904.47;5098542;28;20222;-69
2022/03/30 02:48:41;;;;;;;9.83;3.00;;;;;;;13.06;53.32;94903.88;5098520;28;20208;-69
2022/03/30 02:51:09;;;;;;;26.27;3.90;;;;;;;13.14;53.91;94900.91;5094188;28;20209;-69
2022/03/30 02:53:36;;;;;;;17.83;2.53;;;;;;;13.05;54.61;94901.47;5097624;28;20377;-69
2022/03/30 02:56:04;;;;;;;10.70;2.92;;;;;;;13.02;54.84;94909.81;5098511;28;20698;-68
2022/03/30 02:58:30;;;;;;;8.30;2.38;;;;;;;13.01;55.76;94903.72;5098270;28;20207;-69
2022/03/30 03:00:57;;;;;;;16.53;3.70;;;;;;;12.92;55.51;94899.78;5098072;28;20695;-69
2022/03/30 03:03:27;;;;;;;22.50;3.17;;;;;;;13.12;55.75;94896.88;5097557;28;20227;-69
2022/03/30 03:05:53;;;;;;;14.00;3.80;;;;;;;12.91;55.66;94889.44;5097536;28;20222;-69
2022/03/30 03:08:20;;;;;;;18.17;3.87;;;;;;;13.00;55.83;94896.03;5098214;28;20199;-70
2022/03/30 03:10:48;;;;;;;16.83;3.47;;;;;;;13.11;54.90;94884.66;5098829;28;20214;-69
2022/03/30 03:13:16;;;;;;;14.73;3.60;;;;;;;13.01;54.46;94889.72;5097236;28;20401;-69
2022/03/30 03:15:43;;;;;;;17.60;3.27;;;;;;;13.00;54.09;94894.19;5097375;28;20959;-69
2022/03/30 03:18:10;;;;;;;18.00;4.03;;;;;;;12.99;54.13;94897.06;5098977;28;20562;-69
2022/03/30 03:20:42;;;;;;;14.33;4.13;;;;;;;13.29;53.99;94881.97;5098176;28;20203;-69
2022/03/30 03:23:09;;;;;;;10.73;3.60;;;;;;;13.10;53.41;94891.03;5097102;28;20226;-69
2022/03/30 03:25:37;;;;;;;14.47;4.20;;;;;;;13.14;53.20;94890.31;5097861;28;20233;-69
2022/03/30 03:28:05;;;;;;;56.97;14.33;;;;;;;13.11;53.26;94884.66;5097393;28;20628;-69
2022/03/30 03:30:32;;;;;;;30.90;8.80;;;;;;;13.02;53.57;94878.91;5097863;28;20715;-68
2022/03/30 03:32:59;;;;;;;20.60;6.43;;;;;;;13.13;52.93;94890.56;5097074;28;20195;-69
2022/03/30 03:35:26;;;;;;;18.30;5.47;;;;;;;12.99;54.28;94881.19;5097815;28;20654;-68
2022/03/30 03:37:54;;;;;;;14.67;5.50;;;;;;;13.13;53.55;94883.41;5097958;28;20196;-70
2022/03/30 03:40:21;;;;;;;21.53;3.97;;;;;;;13.11;52.76;94874.09;5093478;28;20210;-69
2022/03/30 03:42:48;;;;;;;14.95;4.45;;;;;;;13.00;53.08;94877.53;5097003;28;20687;-69
2022/03/30 03:45:16;;;;;;;25.87;3.33;;;;;;;13.06;52.43;94881.88;5096515;28;20470;-69
2022/03/30 03:47:42;;;;;;;10.15;3.65;;;;;;;12.95;52.22;94882.66;5096956;28;20199;-69
2022/03/30 03:50:11;;;;;;;11.27;2.73;;;;;;;13.13;52.32;94883.41;5097214;28;20229;-69
2022/03/30 03:52:38;;;;;;;11.68;3.72;;;;;;;12.99;52.22;94871.41;5096707;28;20205;-69
2022/03/30 03:55:07;;;;;;;18.93;4.03;;;;;;;13.21;51.72;94871.72;5096945;28;20234;-68
2022/03/30 03:57:34;;;;;;;18.50;2.90;;;;;;;13.19;51.78;94871.16;5096869;28;20229;-69
2022/03/30 04:00:02;;;;;;;11.93;2.83;;;;;;;13.25;51.65;94864.94;5096805;28;20268;-69
2022/03/30 04:02:29;;;;;;;9.57;2.97;;;;;;;13.20;51.67;94867.44;5096032;28;20357;-69
2022/03/30 04:04:55;;;;;;;11.80;4.00;;;;;;;13.29;51.79;94869.56;5096736;28;20594;-70
2022/03/30 04:07:21;;;;;;;10.30;3.17;;;;;;;13.27;51.51;94865.53;5097515;28;20605;-69
2022/03/30 04:09:48;;;;;;;12.32;2.40;;;;;;;13.27;51.47;94863.69;5096799;28;20400;-68
2022/03/30 04:12:16;;;;;;;29.53;6.07;;;;;;;13.42;51.43;94856.13;5096352;28;20211;-69
2022/03/30 04:14:42;;;;;;;20.80;3.60;;;;;;;13.33;51.26;94857.50;5096912;28;20218;-68
2022/03/30 04:17:09;;;;;;;11.37;2.60;;;;;;;13.29;51.25;94858.16;5096923;28;20679;-70
2022/03/30 04:19:35;;;;;;;8.23;3.30;;;;;;;13.37;51.23;94852.56;5096453;28;20207;-69
2022/03/30 04:22:02;;;;;;;17.50;2.60;;;;;;;13.39;51.44;94846.81;5096676;28;20203;-69
2022/03/30 04:24:29;;;;;;;20.90;2.63;;;;;;;13.39;51.36;94857.41;5095548;28;20702;-69
2022/03/30 04:26:55;;;;;;;9.55;2.20;;;;;;;13.46;51.40;94854.66;5096975;28;20260;-69
2022/03/30 04:29:23;;;;;;;19.15;3.53;;;;;;;13.38;52.60;94838.28;5096791;28;20227;-69
2022/03/30 04:31:50;;;;;;;5.93;2.22;;;;;;;13.27;52.55;94844.38;5095862;28;20802;-68
2022/03/30 04:34:16;;;;;;;11.93;2.07;;;;;;;13.32;52.12;94849.78;5096064;28;20227;-68
2022/03/30 04:36:43;;;;;;;20.20;3.13;;;;;;;13.38;53.08;94843.56;5096664;28;20836;-69
2022/03/30 04:39:09;;;;;;;15.43;3.70;;;;;;;13.33;53.37;94852.22;5092435;28;20701;-69
2022/03/30 04:41:36;;;;;;;12.60;4.15;;;;;;;13.35;53.27;94846.69;5096396;28;20202;-69
2022/03/30 04:44:02;;;;;;;14.30;4.23;;;;;;;13.30;54.45;94852.66;5096083;28;20995;-69
2022/03/30 04:46:30;;;;;;;13.80;3.07;;;;;;;13.02;55.11;94855.13;5096391;28;20618;-69
2022/03/30 04:48:57;;;;;;;20.08;3.75;;;;;;;13.09;54.69;94847.88;5096045;28;20218;-70
2022/03/30 04:51:23;;;;;;;9.47;3.93;;;;;;;13.08;54.33;94853.41;5096424;28;20199;-69
2022/03/30 04:53:50;;;;;;;16.60;3.10;;;;;;;12.98;54.61;94861.06;5095308;28;20207;-68
2022/03/30 04:56:16;;;;;;;17.17;3.50;;;;;;;12.89;54.88;94859.75;5096263;28;20223;-68
2022/03/30 04:58:43;;;;;;;12.90;4.53;;;;;;;12.96;54.96;94865.78;5095034;28;20203;-69
2022/03/30 05:01:09;;;;;;;22.73;4.30;;;;;;;12.90;55.01;94864.03;5096847;28;20203;-69
2022/03/30 05:03:37;;;;;;;13.07;3.27;;;;;;;13.03;56.30;94866.47;5095974;28;20223;-69
2022/03/30 05:06:03;;;;;;;12.23;4.37;;;;;;;12.69;57.06;94869.78;5097164;28;20230;-69
2022/03/30 05:08:30;;;;;;;20.07;3.37;;;;;;;12.36;58.36;94866.72;5097076;28;20207;-69
2022/03/30 05:10:56;;;;;;;11.63;3.23;;;;;;;12.51;59.97;94866.31;5096701;28;20664;-69
2022/03/30 05:13:23;;;;;;;21.60;3.30;;;;;;;12.39;61.90;94871.53;5095813;28;20622;-69
2022/03/30 05:15:51;;;;;;;10.77;3.10;;;;;;;12.27;63.71;94870.66;5096798;28;20223;-68
2022/03/30 05:18:17;;;;;;;20.47;3.33;;;;;;;12.25;65.15;94864.00;5096559;28;20207;-68
2022/03/30 05:20:46;;;;;;;13.37;2.93;;;;;;;12.20;65.91;94866.47;5096444;28;20203;-69
2022/03/30 05:23:12;;;;;;;2.77;2.20;;;;;;;12.03;67.58;94868.09;5095653;28;20227;-68
2022/03/30 05:25:39;;;;;;;12.93;3.63;;;;;;;12.27;69.36;94869.84;5096798;28;20252;-69
2022/03/30 05:28:06;;;;;;;10.53;3.03;;;;;;;12.14;70.11;94869.19;5096854;28;20207;-68
2022/03/30 05:30:32;;;;;;;18.00;2.93;;;;;;;11.86;70.76;94867.03;5096543;28;20225;-68
2022/03/30 05:33:00;;;;;;;19.60;4.10;;;;;;;12.03;71.28;94872.53;5095991;28;20199;-67
2022/03/30 05:35:27;;;;;;;8.73;3.13;;;;;;;12.05;72.51;94867.88;5095991;28;20229;-69
2022/03/30 05:37:55;;;;;;;8.27;3.57;;;;;;;11.98;74.39;94873.22;5096361;28;20196;-68
2022/03/30 05:40:21;;;;;;;11.80;3.77;;;;;;;12.16;75.89;94872.44;5093105;28;20230;-69
2022/03/30 05:42:48;;;;;;;12.07;4.87;;;;;;;12.05;75.74;94870.50;5095716;28;20234;-68
2022/03/30 05:45:14;;;;;;;10.63;2.67;;;;;;;12.02;75.85;94870.94;5096491;28;20668;-70
2022/03/30 05:47:42;;;;;;;12.83;3.70;;;;;;;12.09;76.44;94875.13;5096028;28;20275;-68
2022/03/30 05:50:09;;;;;;;31.27;3.97;;;;;;;12.04;77.24;94868.88;5096822;28;20203;-68
2022/03/30 05:52:35;;;;;;;14.30;3.13;;;;;;;12.14;77.73;94871.84;5095611;28;20199;-68
2022/03/30 05:55:04;;;;;;;10.93;3.43;;;;;;;12.11;78.34;94869.66;5096344;28;20215;-68
2022/03/30 05:57:30;;;;;;;6.40;3.27;;;;;;;12.02;79.30;94866.47;5096384;28;20207;-68
2022/03/30 05:59:58;;;;;;;15.03;3.07;;;;;;;11.88;79.34;94864.19;5096426;28;20210;-69
2022/03/30 06:02:25;;;;;;;11.57;3.23;;;;;;;11.95;79.20;94863.09;5095626;28;20203;-69
2022/03/30 06:04:53;;;;;;;9.53;2.73;;;;;;;12.02;80.84;94861.19;5095640;28;20226;-68
2022/03/30 06:07:20;;;;;;;9.03;3.60;;;;;;;11.91;80.63;94858.47;5097801;28;20207;-68
2022/03/30 06:09:46;;;;;;;24.93;4.57;;;;;;;11.98;83.14;94860.00;5100193;28;20214;-68
2022/03/30 06:12:14;;;;;;;12.63;4.10;;;;;;;12.17;82.83;94866.94;5099378;28;20506;-68
2022/03/30 06:14:41;;;;;;;12.83;3.87;;;;;;;12.00;83.34;94863.22;5099514;28;20208;-68
2022/03/30 06:17:08;;;;;;;17.70;4.50;;;;;;;12.02;83.91;94863.03;5100110;28;20206;-69
2022/03/30 06:19:36;;;;;;;16.33;3.90;;;;;;;11.96;85.35;94861.25;5099687;28;20210;-69
2022/03/30 06:22:05;;;;;;;19.77;4.40;;;;;;;12.06;84.61;94864.22;5099474;28;21111;-68
2022/03/30 06:24:32;;;;;;;13.83;5.17;;;;;;;11.83;85.10;94862.19;5098939;28;20313;-68
2022/03/30 06:26:58;;;;;;;23.40;5.37;;;;;;;11.75;84.94;94867.75;5099720;28;20301;-69
2022/03/30 06:29:26;;;;;;;23.10;5.17;;;;;;;12.06;86.08;94866.84;5099623;28;20195;-68
2022/03/30 06:31:53;;;;;;;24.17;4.20;;;;;;;11.75;85.01;94861.69;5099083;28;20206;-68
2022/03/30 06:34:19;;;;;;;16.17;4.50;;;;;;;11.73;86.59;94855.78;5098288;28;20210;-68
2022/03/30 06:36:46;;;;;;;21.13;4.60;;;;;;;11.73;88.68;94858.44;5098881;28;20283;-68
2022/03/30 06:39:12;;;;;;;16.00;4.27;;;;;;;11.78;87.21;94858.59;5096255;28;20649;-67
2022/03/30 06:41:39;;;;;;;10.50;4.37;;;;;;;11.85;88.19;94854.03;5099493;28;21095;-69
2022/03/30 06:44:06;;;;;;;11.87;4.40;;;;;;;11.95;87.94;94857.81;5098113;28;20254;-68
2022/03/30 06:46:38;;;;;;;21.33;4.87;;;;;;;11.82;88.44;94850.00;5098726;28;20219;-69
2022/03/30 06:49:04;;;;;;;26.43;4.37;;;;;;;11.76;87.63;94860.63;5099472;28;20213;-69
2022/03/30 06:51:31;;;;;;;15.53;5.37;;;;;;;11.69;88.58;94854.63;5099191;28;20212;-68
2022/03/30 06:53:57;;;;;;;16.50;4.03;;;;;;;11.92;88.85;94854.81;5098094;28;20222;-68
2022/03/30 06:56:24;;;;;;;13.63;3.13;;;;;;;11.75;88.56;94851.13;5099053;28;20237;-68
2022/03/30 06:58:51;;;;;;;13.73;3.73;;;;;;;11.85;88.60;94844.31;5098645;28;20203;-68
2022/03/30 07:01:17;;;;;;;16.13;4.20;;;;;;;11.86;88.79;94847.75;5098895;28;20906;-69
2022/03/30 07:03:45;;;;;;;18.37;4.67;;;;;;;12.00;89.75;94862.44;5098422;28;20223;-68
2022/03/30 07:06:11;;;;;;;31.40;5.80;;;;;;;11.84;90.62;94852.44;5098672;28;20226;-68
2022/03/30 07:11:22;;;;;;;12.43;4.30;;;;;;;11.71;89.80;94845.47;5099828;28;20232;-68
2022/03/30 07:13:48;;;;;;;14.97;3.87;;;;;;;12.01;89.87;94840.28;5098088;28;20576;-69
2022/03/30 07:16:15;;;;;;;12.43;3.40;;;;;;;11.93;90.21;94841.38;5098230;28;20227;-69
2022/03/30 07:18:41;;;;;;;16.20;4.57;;;;;;;11.82;90.42;94842.09;5098893;28;20222;-68
2022/03/30 07:21:09;;;;;;;20.77;4.57;;;;;;;12.04;89.88;94842.50;5099179;28;20199;-69
2022/03/30 07:23:36;;;;;;;12.83;5.53;;;;;;;12.10;91.14;94836.34;5097372;28;20318;-67
2022/03/30 07:26:04;;;;;;;10.07;3.80;;;;;;;12.19;90.13;94831.34;5098529;28;20227;-68
2022/03/30 07:28:30;;;;;;;16.53;5.07;;;;;;;12.38;89.56;94830.28;5098436;28;20215;-69
2022/03/30 07:30:57;;;;;;;10.97;3.80;;;;;;;12.47;90.23;94831.59;5098159;28;20623;-69
2022/03/30 07:33:24;;;;;;;23.00;4.30;;;;;;;12.57;89.52;94831.09;5097657;28;20203;-68
2022/03/30 07:35:51;;;;;;;14.67;4.83;;;;;;;12.37;89.85;94835.81;5097499;28;20227;-69
2022/03/30 07:38:20;;;;;;;9.20;4.27;;;;;;;12.62;89.54;94837.31;5096339;28;20210;-68
2022/03/30 07:40:49;;;;;;;20.03;5.33;;;;;;;12.58;89.09;94830.88;5093734;28;20199;-69
2022/03/30 07:43:17;;;;;;;12.07;3.43;;;;;;;12.53;88.88;94829.94;5095792;28;20211;-68
2022/03/30 07:45:44;;;;;;;16.87;4.80;;;;;;;12.62;89.08;94832.03;5095938;28;20223;-68
2022/03/30 07:48:12;;;;;;;21.93;4.70;;;;;;;12.70;89.91;94823.78;5095975;28;20628;-69
2022/03/30 07:50:39;;;;;;;11.60;3.87;;;;;;;12.69;90.23;94830.13;5095695;28;20195;-67
2022/03/30 07:53:07;;;;;;;16.17;4.20;;;;;;;12.65;88.09;94831.56;5095701;28;20603;-68
2022/03/30 07:55:35;;;;;;;23.60;5.07;;;;;;;12.61;87.69;94827.78;5097397;28;20223;-68
2022/03/30 07:58:02;;;;;;;14.00;4.13;;;;;;;12.36;87.74;94829.72;5097512;28;20576;-68
2022/03/30 08:00:29;;;;;;;17.10;3.83;;;;;;;12.21;89.55;94834.56;5097169;28;20219;-69
2022/03/30 08:02:55;;;;;;;10.60;4.77;;;;;;;12.35;88.37;94829.94;5096997;28;20222;-68
2022/03/30 08:05:22;;;;;;;14.30;4.30;;;;;;;12.40;88.61;94838.81;5097483;28;21088;-68
2022/03/30 08:07:49;;;;;;;19.23;4.87;;;;;;;12.28;89.76;94824.75;5097783;28;20211;-68
2022/03/30 08:10:16;;;;;;;24.53;4.60;;;;;;;12.32;91.82;94822.44;5097523;28;20269;-68
2022/03/30 08:12:45;;;;;;;17.13;5.57;;;;;;;12.57;90.37;94829.25;5096946;28;20207;-69
2022/03/30 08:15:13;;;;;;;11.33;3.90;;;;;;;12.64;90.43;94829.16;5097820;28;20219;-69
2022/03/30 08:17:40;;;;;;;12.13;3.83;;;;;;;12.48;88.96;94827.94;5097135;28;20294;-68
2022/03/30 08:20:07;;;;;;;14.50;4.17;;;;;;;12.45;90.22;94825.75;5097165;28;20206;-68
2022/03/30 08:22:33;;;;;;;12.20;4.67;;;;;;;12.65;90.40;94826.28;5097868;28;20207;-69
2022/03/30 08:25:02;;;;;;;12.13;4.60;;;;;;;12.72;89.87;94820.94;5097274;28;20223;-68
2022/03/30 08:27:30;;;;;;;9.77;3.40;;;;;;;12.75;89.10;94826.56;5096886;28;20203;-68
2022/03/30 08:29:59;;;;;;;14.00;3.83;;;;;;;12.99;92.05;94823.03;5096479;28;20199;-68
2022/03/30 08:32:27;;;;;;;20.23;4.00;;;;;;;12.35;88.47;94820.19;5096876;28;20375;-68
2022/03/30 08:34:56;;;;;;;18.40;4.33;;;;;;;12.77;88.93;94820.03;5097130;28;20214;-69
2022/03/30 08:37:23;;;;;;;16.13;3.63;;;;;;;12.84;90.68;94819.94;5097619;28;20248;-68
2022/03/30 08:39:51;;;;;;;14.67;4.10;;;;;;;12.52;88.93;94826.47;5094889;28;20203;-68
2022/03/30 08:42:18;;;;;;;11.30;3.70;;;;;;;12.56;91.38;94825.00;5096202;28;20590;-68
2022/03/30 08:44:46;;;;;;;22.77;3.97;;;;;;;12.48;90.04;94824.50;5097009;28;20223;-67
2022/03/30 08:47:15;;;;;;;15.53;3.87;;;;;;;12.66;90.64;94819.97;5097079;28;20222;-68
2022/03/30 08:49:44;;;;;;;15.07;4.60;;;;;;;12.62;91.19;94818.81;5096654;28;20249;-68
2022/03/30 08:52:12;;;;;;;10.87;4.03;;;;;;;12.55;92.40;94820.75;5096715;28;20232;-69
2022/03/30 08:54:42;;;;;;;15.70;4.37;;;;;;;12.74;93.39;94824.16;5096907;28;20294;-68
2022/03/30 08:57:09;;;;;;;10.10;3.90;;;;;;;12.54;92.56;94823.63;5097006;28;20276;-68
2022/03/30 08:59:35;;;;;;;15.33;4.50;;;;;;;12.47;92.47;94823.69;5096400;28;20214;-68
2022/03/30 09:02:02;;;;;;;10.83;3.97;;;;;;;12.63;92.32;94814.38;5096502;28;20214;-68
2022/03/30 09:04:30;;;;;;;13.70;4.13;;;;;;;12.68;92.37;94811.81;5095927;28;20227;-67
2022/03/30 09:06:58;;;;;;;17.20;3.37;;;;;;;12.46;93.32;94815.97;5096547;28;20272;-69
2022/03/30 09:09:31;;;;;;;10.80;3.43;;;;;;;12.77;93.33;94811.31;5096774;28;20199;-69
2022/03/30 09:11:59;;;;;;;26.07;4.67;;;;;;;12.51;93.58;94824.88;5096632;28;20203;-68
2022/03/30 09:14:28;;;;;;;17.23;3.83;;;;;;;12.47;92.20;94813.13;5096068;28;20210;-68
2022/03/30 09:16:56;;;;;;;15.10;4.73;;;;;;;12.17;93.87;94816.75;5096823;28;20199;-69
2022/03/30 09:19:23;;;;;;;7.13;3.33;;;;;;;12.07;94.00;94816.47;5096476;28;20214;-68
2022/03/30 09:21:53;;;;;;;17.40;3.53;;;;;;;12.27;94.86;94811.75;5096513;28;21100;-68
2022/03/30 09:24:21;;;;;;;7.57;2.60;;;;;;;12.00;95.39;94810.44;5096100;28;20227;-67
2022/03/30 09:26:50;;;;;;;16.70;4.17;;;;;;;12.12;95.68;94803.41;5096422;28;20219;-68
2022/03/30 09:29:19;;;;;;;8.13;2.07;;;;;;;12.05;95.72;94801.88;5096739;28;20203;-68
2022/03/30 09:31:46;;;;;;;13.17;2.87;;;;;;;11.71;96.49;94800.59;5097153;28;20728;-68
2022/03/30 09:34:12;;;;;;;5.43;2.30;;;;;;;11.86;96.48;94808.97;5095562;28;20675;-68
2022/03/30 09:36:41;;;;;;;6.43;1.87;;;;;;;11.78;95.91;94797.91;5095885;28;21145;-67
2022/03/30 09:39:26;;;;;;;10.00;3.03;;;;;;;11.86;96.23;94806.34;5094133;28;20657;-69
2022/03/30 09:41:55;;;;;;;14.20;3.23;;;;;;;11.91;97.12;94805.66;5097451;28;20264;-68
2022/03/30 09:44:22;;;;;;;18.80;3.37;;;;;;;11.86;98.05;94806.34;5099624;28;20223;-68
2022/03/30 09:46:53;;;;;;;5.77;3.13;;;;;;;12.19;96.59;94793.56;5099842;28;20223;-68
2022/03/30 09:49:38;;;;;;;4.77;2.33;;;;;;;12.10;96.17;94794.09;5100433;28;20244;-67
2022/03/30 09:52:13;;;;;;;7.27;2.53;;;;;;;12.40;97.54;94793.91;5099741;28;20289;-69
2022/03/30 09:54:43;;;;;;;5.60;2.30;;;;;;;12.03;98.42;94788.06;5099747;28;20203;-67
2022/03/30 09:57:15;;;;;;;6.60;2.43;;;;;;;12.01;98.33;94784.84;5100393;28;20211;-68
2022/03/30 10:00:08;;;;;;;4.57;2.77;;;;;;;12.13;97.19;94775.97;5100054;28;20212;-68
2022/03/30 10:02:37;;;;;;;9.33;3.03;;;;;;;11.92;98.85;94776.41;5099559;28;20219;-68
2022/03/30 10:05:05;;;;;;;20.13;4.30;;;;;;;12.29;98.14;94783.28;5100106;28;20233;-68
2022/03/30 10:07:32;;;;;;;14.57;3.57;;;;;;;12.09;97.73;94777.44;5099479;28;20210;-68
2022/03/30 10:10:01;;;;;;;10.23;2.80;;;;;;;12.40;98.22;94775.41;5100232;28;20256;-68
2022/03/30 10:12:28;;;;;;;17.43;3.50;;;;;;;12.07;96.23;94768.16;5099258;28;20203;-68
2022/03/30 10:14:56;;;;;;;5.93;3.63;;;;;;;11.86;97.00;94768.56;5099421;28;20223;-68
2022/03/30 10:17:24;;;;;;;23.27;4.70;;;;;;;11.95;97.69;94760.16;5099740;28;20214;-69
2022/03/30 10:19:52;;;;;;;19.67;3.43;;;;;;;11.76;97.08;94757.72;5099804;28;20684;-68
2022/03/30 10:22:52;;;;;;;12.77;3.13;;;;;;;12.35;96.39;94756.78;5099138;28;20211;-68
2022/03/30 10:25:43;;;;;;;7.23;2.63;;;;;;;12.46;96.83;94755.22;5099237;28;20314;-68
2022/03/30 10:28:22;;;;;;;11.70;3.13;;;;;;;12.34;97.26;94746.44;5099814;28;20207;-68
2022/03/30 10:30:53;;;;;;;7.93;3.30;;;;;;;12.46;97.02;94742.84;5099813;28;20207;-69
2022/03/30 10:33:30;;;;;;;8.50;3.00;;;;;;;12.70;95.42;94728.66;5099098;28;20199;-68
2022/03/30 10:35:58;;;;;;;13.63;3.77;;;;;;;12.53;95.60;94738.25;5099525;28;20767;-68
2022/03/30 10:38:25;;;;;;;10.87;3.60;;;;;;;12.60;95.50;94738.97;5098731;28;20276;-68
2022/03/30 10:41:07;;;;;;;10.73;3.43;;;;;;;12.91;95.24;94730.81;5096303;28;20199;-68
2022/03/30 10:43:33;;;;;;;14.97;3.83;;;;;;;12.37;94.69;94740.72;5098815;28;20203;-69
2022/03/30 10:46:02;;;;;;;21.10;4.53;;;;;;;12.49;95.71;94734.44;5098798;28;20227;-67
2022/03/30 10:48:38;;;;;;;10.07;2.70;;;;;;;12.61;94.85;94737.13;5098733;28;20742;-67
2022/03/30 10:51:18;;;;;;;11.27;3.97;;;;;;;12.67;93.75;94729.09;5099243;28;20234;-69
2022/03/30 10:53:47;;;;;;;10.97;3.30;;;;;;;12.85;95.16;94723.75;5099199;28;20256;-69
2022/03/30 10:56:34;;;;;;;6.30;3.83;;;;;;;13.06;92.12;94717.94;5098862;28;20219;-69
2022/03/30 10:59:12;;;;;;;14.60;3.10;;;;;;;13.28;91.71;94722.47;5098508;28;20211;-69
2022/03/30 11:01:41;;;;;;;32.17;3.60;;;;;;;12.89;91.68;94724.94;5099143;28;20207;-68
2022/03/30 11:04:17;;;;;;;15.43;3.57;;;;;;;12.98;92.92;94715.63;5097848;28;20217;-68
2022/03/30 11:06:45;;;;;;;12.23;3.27;;;;;;;12.89;93.61;94714.38;5098835;28;20244;-69
2022/03/30 11:09:22;;;;;;;18.97;4.00;;;;;;;12.82;91.47;94713.66;5098988;28;20847;-69
2022/03/30 11:11:58;;;;;;;9.43;3.50;;;;;;;12.78;91.05;94713.28;5098823;28;20242;-68
2022/03/30 11:14:31;;;;;;;14.90;4.20;;;;;;;12.88;91.67;94708.28;5098217;28;20207;-69
2022/03/30 11:16:59;;;;;;;10.70;3.77;;;;;;;12.67;92.02;94713.25;5098335;28;20724;-68
2022/03/30 11:19:30;;;;;;;5.10;2.63;;;;;;;12.86;92.15;94706.91;5098289;28;20284;-68
2022/03/30 11:22:09;;;;;;;15.03;3.27;;;;;;;13.23;91.51;94706.47;5098443;28;20210;-69
2022/03/30 11:24:36;;;;;;;11.27;3.60;;;;;;;13.01;91.10;94699.34;5098343;28;20223;-68
2022/03/30 11:27:22;;;;;;;7.07;3.30;;;;;;;13.29;88.98;94697.63;5098461;28;20730;-68
2022/03/30 11:30:13;;;;;;;15.20;2.97;;;;;;;13.38;88.56;94702.31;5098331;28;20203;-69
2022/03/30 11:32:56;;;;;;;8.37;2.50;;;;;;;13.38;88.94;94693.59;5098112;28;20312;-69
2022/03/30 11:35:25;;;;;;;7.77;3.10;;;;;;;13.06;88.60;94691.50;5097704;28;20226;-68
2022/03/30 11:38:06;;;;;;;11.93;4.63;;;;;;;13.56;87.69;94688.97;5098411;28;20203;-68